1950 NOT_NAMED (1950058S18113)


IBTrACS version v04r00. Visit IBTrACS website for data access.
Please direct all questions to the IBTrACS Q and A forum

Storm track - Intensity - Wind Radii - Intensity Data - Source Data - All data

Summary Information

Storm ID 1950058S18113
Start Feb 26 23Z
End Mar 1 23Z
ATCF IDs ,SH151950
Track status Best track data.

Storm track plot

Map of storm track

Intensity plots

No Intensity information for this storm


Radial wind information

No radial wind information for this storm


Position and Intensity Table

BASIN ISO_TIME_________ NATURE LAT LON
degrees north degrees east
SI 1950-02-26 23:00:00 NR -17.90 113.00
SI 1950-02-27 00:00:00 TS -17.91 112.82
SI 03:00:00 TS -17.95 112.37
SI 06:00:00 TS -17.99 111.90
SI 09:00:00 TS -18.00 111.41
SI 11:00:00 TS -18.00 111.08
SI 12:00:00 TS -18.00 110.91
SI 15:00:00 TS -18.00 110.42
SI 18:00:00 TS -17.99 109.92
SI 21:00:00 TS -17.99 109.41
SI 23:00:00 TS -18.00 109.08
SI 1950-02-28 00:00:00 TS -18.00 108.91
SI 03:00:00 TS -18.05 108.41
SI 06:00:00 TS -18.12 107.89
SI 09:00:00 TS -18.21 107.35
SI 11:00:00 TS -18.28 106.99
SI 12:00:00 TS -18.31 106.82
SI 15:00:00 TS -18.41 106.33
SI 18:00:00 TS -18.51 105.84
SI 21:00:00 TS -18.60 105.36
SI 23:00:00 TS -18.67 105.00
SI 1950-03-01 00:00:00 TS -18.71 104.80
SI 03:00:00 TS -18.85 104.10
SI 06:00:00 TS -18.99 103.29
SI 09:00:00 TS -19.09 102.39
SI 11:00:00 TS -19.17 101.73
SI 12:00:00 TS -19.22 101.38
SI 15:00:00 TS -19.41 100.26
SI 18:00:00 TS -19.63 99.08
SI 21:00:00 NR -19.86 97.83
SI 23:00:00 NR -20.00 97.00

Source Information

Agency Information
USA bsh151950.txt
TOKYO
CMA
HKO
NEWDELHI
REUNION
BOM
NADI
WELLINGTON
DS824 s_hem.dat:537:15S
TD9636 cons_worldwide_trop_cyclone_18710101-19891231-006:Line=3582
TD9635
NEUMANN
MLC

All available IBTrACS Data

SEASON BASIN SUBBASIN ISO_TIME_________ NATURE LAT LON DIST2LAND LANDFALL IFLAG USA AGENCY USA ATCF_ID USA LAT USA LON USA SSHS DS824 LAT DS824 LON DS824 STAGE TD9636 LAT TD9636 LON TD9636 STAGE STORM SPEED STORM DIR
Year degrees north degrees east km km degrees north degrees east 1 degrees north degrees east degrees north degrees east kts degrees
1950 SI WA 1950-02-26 23:00:00 NR -17.90 113.00 459 459 __________O___ -1 -17.90 113.00 7 10 268
1950 SI WA 1950-02-27 00:00:00 TS -17.91 112.82 464 464 O________OP___ jtwc_sh SH151950 -17.90 112.80 -1 -17.90 112.80 TC -17.91 112.84 7 9 265
1950 SI WA 03:00:00 TS -17.95 112.37 467 467 P________PP___ SH151950 -17.96 112.36 -1 -17.96 112.36 TC -17.95 112.37 7 9 264
1950 SI WA 06:00:00 TS -17.99 111.90 488 488 O________OP___ jtwc_sh SH151950 -18.00 111.90 -1 -18.00 111.90 TC -17.98 111.90 7 9 267
1950 SI WA 09:00:00 TS -18.00 111.41 513 513 P________PP___ SH151950 -18.01 111.41 -1 -18.01 111.41 TC -18.00 111.42 7 9 269
1950 SI WA 11:00:00 TS -18.00 111.08 531 531 P________PO___ SH151950 -18.00 111.07 -1 -18.00 111.07 TC -18.00 111.10 7 10 270
1950 SI WA 12:00:00 TS -18.00 110.91 543 543 O________OP___ jtwc_sh SH151950 -18.00 110.90 -1 -18.00 110.90 TC -18.00 110.94 7 9 270
1950 SI WA 15:00:00 TS -18.00 110.42 575 575 P________PP___ SH151950 -18.00 110.40 -1 -18.00 110.40 TC -17.99 110.45 7 9 270
1950 SI WA 18:00:00 TS -17.99 109.92 611 611 O________OP___ jtwc_sh SH151950 -18.00 109.90 -1 -18.00 109.90 TC -17.98 109.95 7 10 270
1950 SI WA 21:00:00 TS -17.99 109.41 649 649 P________PP___ SH151950 -17.99 109.40 -1 -17.99 109.40 TC -17.99 109.44 7 10 270
1950 SI WA 23:00:00 TS -18.00 109.08 672 672 P________PO___ SH151950 -17.99 109.07 -1 -17.99 109.07 TC -18.00 109.10 7 10 268
1950 SI WA 1950-02-28 00:00:00 TS -18.00 108.91 688 688 O________OP___ jtwc_sh SH151950 -18.00 108.90 -1 -18.00 108.90 TC -18.01 108.93 7 10 265
1950 SI WA 03:00:00 TS -18.05 108.41 729 729 P________PP___ SH151950 -18.03 108.41 -1 -18.03 108.41 TC -18.07 108.40 7 10 263
1950 SI WA 06:00:00 TS -18.12 107.89 765 765 O________OP___ jtwc_sh SH151950 -18.10 107.90 -1 -18.10 107.90 TC -18.15 107.87 7 10 261
1950 SI WA 09:00:00 TS -18.21 107.35 812 812 P________PP___ SH151950 -18.19 107.35 -1 -18.19 107.35 TC -18.24 107.35 7 10 259
1950 SI WA 11:00:00 TS -18.28 106.99 834 834 P________PO___ SH151950 -18.26 106.98 -1 -18.26 106.98 TC -18.30 107.00 7 10 259
1950 SI WA 12:00:00 TS -18.31 106.82 852 852 O________OP___ jtwc_sh SH151950 -18.30 106.80 -1 -18.30 106.80 TC -18.33 106.85 7 10 258
1950 SI WA 15:00:00 TS -18.41 106.33 893 893 P________PP___ SH151950 -18.40 106.29 -1 -18.40 106.29 TC -18.42 106.40 7 9 258
1950 SI WA 18:00:00 TS -18.51 105.84 932 932 O________OP___ jtwc_sh SH151950 -18.50 105.80 -1 -18.50 105.80 TC -18.52 105.93 7 9 258
1950 SI WA 21:00:00 TS -18.60 105.36 963 963 P________PP___ SH151950 -18.59 105.34 -1 -18.59 105.34 TC -18.62 105.40 7 10 258
1950 SI WA 23:00:00 TS -18.67 105.00 995 995 P________PO___ SH151950 -18.66 105.00 -1 -18.66 105.00 TC -18.70 105.00 7 11 259
1950 SI WA 1950-03-01 00:00:00 TS -18.71 104.80 1013 1013 O________OP___ jtwc_sh SH151950 -18.70 104.80 -1 -18.70 104.80 TC -18.73 104.79 7 13 258
1950 SI WA 03:00:00 TS -18.85 104.10 1075 1070 P________PP___ SH151950 -18.85 104.12 -1 -18.85 104.12 TC -18.84 104.08 7 15 259
1950 SI WA 06:00:00 TS -18.99 103.29 1143 1143 O________OP___ jtwc_sh SH151950 -19.00 103.30 -1 -19.00 103.30 TC -18.96 103.27 7 16 261
1950 SI WA 09:00:00 TS -19.09 102.39 1227 1227 P________PP___ SH151950 -19.09 102.41 -1 -19.09 102.41 TC -19.10 102.36 7 18 263
1950 SI WA 11:00:00 TS -19.17 101.73 1292 1292 P________PO___ SH151950 -19.16 101.75 -1 -19.16 101.75 TC -19.20 101.70 7 19 262
1950 SI WA 12:00:00 TS -19.22 101.38 1322 1322 O________OP___ jtwc_sh SH151950 -19.20 101.40 -1 -19.20 101.40 TC -19.26 101.35 7 21 260
1950 SI WA 15:00:00 TS -19.41 100.26 1425 1425 P________PP___ SH151950 -19.38 100.28 -1 -19.38 100.28 TC -19.45 100.24 7 22 259
1950 SI WA 18:00:00 TS -19.63 99.08 1540 1540 O________OP___ jtwc_sh SH151950 -19.60 99.10 -1 -19.60 99.10 TC -19.65 99.06 7 23 259
1950 SI WA 21:00:00 NR -19.86 97.83 1663 1663 __________P___ SH151950 -1 TC -19.86 97.83 7 24 259
1950 SI WA 23:00:00 NR -20.00 97.00 1722 __________O___ SH151950 -1 TC -20.00 97.00 7 24 260